createdAt,value
2017-08-13T13:49:28.038Z,1115
2017-08-13T13:50:29.551Z,585
2017-08-13T13:51:30.986Z,405
2017-08-13T13:52:32.447Z,340
2017-08-13T13:53:33.987Z,375
2017-08-13T13:54:35.431Z,325
2017-08-13T13:55:36.869Z,245
2017-08-13T13:56:38.323Z,225
2017-08-13T13:57:39.766Z,210
2017-08-13T13:58:41.200Z,200
2017-08-13T13:59:42.634Z,190
2017-08-13T14:00:44.066Z,185
2017-08-13T14:01:45.502Z,185
2017-08-13T14:02:46.932Z,185
2017-08-13T14:03:48.367Z,190
2017-08-13T14:04:51.244Z,195
2017-08-13T14:05:52.532Z,205
2017-08-13T14:06:53.970Z,215
2017-08-13T14:07:55.402Z,235
2017-08-13T14:08:56.840Z,250
2017-08-13T14:09:58.274Z,255
2017-08-13T14:10:59.713Z,260
2017-08-13T14:12:01.147Z,260
2017-08-13T14:13:02.583Z,250
2017-08-13T14:14:04.021Z,240
2017-08-13T14:15:05.452Z,205
2017-08-13T14:16:06.879Z,135
2017-08-13T14:17:08.319Z,225
2017-08-13T14:18:09.763Z,220
2017-08-13T14:19:11.203Z,200
2017-08-13T14:20:12.630Z,195
2017-08-13T14:21:14.163Z,225
2017-08-13T14:22:15.597Z,255
2017-08-13T14:23:17.033Z,270
2017-08-13T14:24:18.469Z,270
2017-08-13T14:25:19.918Z,260
2017-08-13T14:26:21.337Z,255
2017-08-13T14:27:22.782Z,255
2017-08-13T14:28:24.318Z,240
2017-08-13T14:29:25.750Z,230
2017-08-13T14:30:27.178Z,220
2017-08-13T14:31:28.618Z,210
2017-08-13T14:32:30.070Z,190
2017-08-13T14:33:31.508Z,185
2017-08-13T14:34:32.942Z,160
2017-08-13T14:35:34.384Z,150
2017-08-13T14:36:35.817Z,135
2017-08-13T14:37:37.249Z,120
2017-08-13T14:38:38.686Z,110
2017-08-13T14:39:40.241Z,105
2017-08-13T14:40:41.680Z,90
2017-08-13T14:41:43.113Z,85
2017-08-13T14:42:44.539Z,80
2017-08-13T14:43:45.978Z,75
2017-08-13T14:44:47.412Z,70
2017-08-13T14:45:48.838Z,65
2017-08-13T14:46:50.282Z,75
2017-08-13T14:47:51.712Z,85
2017-08-13T14:48:53.149Z,95
2017-08-13T14:49:54.580Z,115
2017-08-13T14:50:56.020Z,135
2017-08-13T14:51:57.445Z,145
2017-08-13T14:52:58.876Z,145
2017-08-13T14:54:00.328Z,150
2017-08-13T14:55:01.767Z,140
2017-08-13T14:56:03.198Z,145
2017-08-13T14:57:04.634Z,130
2017-08-13T14:58:06.070Z,110
2017-08-13T14:59:07.573Z,90
2017-08-13T15:00:09.011Z,75
2017-08-13T15:01:10.482Z,65
2017-08-13T15:02:12.439Z,55
2017-08-13T15:03:13.873Z,50
2017-08-13T15:04:15.299Z,50
2017-08-13T15:05:16.728Z,45
2017-08-13T15:06:18.155Z,45
2017-08-13T15:07:19.583Z,45
2017-08-13T15:08:21.022Z,40
2017-08-13T15:09:22.449Z,40
2017-08-13T15:10:23.906Z,35
2017-08-13T15:11:25.356Z,30
2017-08-13T15:12:26.787Z,25
2017-08-13T15:13:28.220Z,25
2017-08-13T15:14:29.659Z,25
2017-08-13T15:15:31.091Z,25
2017-08-13T15:16:32.520Z,10
2017-08-13T15:17:33.953Z,20
2017-08-13T15:18:35.378Z,30
2017-08-13T15:19:36.809Z,35
2017-08-13T15:20:38.240Z,35
2017-08-13T15:21:39.665Z,20
2017-08-13T15:22:41.106Z,35
2017-08-13T15:23:42.537Z,40
2017-08-13T15:24:43.976Z,50
2017-08-13T15:25:45.399Z,55
2017-08-13T15:26:46.863Z,60
2017-08-13T15:27:48.298Z,60
2017-08-13T15:28:49.734Z,65
2017-08-13T15:29:51.175Z,65
2017-08-13T15:30:52.610Z,70
2017-08-13T15:31:54.041Z,65
2017-08-13T15:32:55.468Z,65
2017-08-13T15:33:56.902Z,60
2017-08-13T15:34:59.156Z,60
2017-08-13T15:36:00.587Z,60
2017-08-13T15:37:02.029Z,50
2017-08-13T15:38:03.460Z,40
2017-08-13T15:39:04.900Z,30
2017-08-13T15:40:06.335Z,20
2017-08-13T15:41:07.779Z,15
2017-08-13T15:42:09.206Z,15
2017-08-13T15:43:10.644Z,15
2017-08-13T15:44:12.094Z,15
2017-08-13T15:45:13.544Z,15
2017-08-13T15:46:14.970Z,25
2017-08-13T15:47:16.404Z,35
2017-08-13T15:48:18.285Z,45
2017-08-13T15:49:20.082Z,50
2017-08-13T15:50:21.519Z,50
2017-08-13T15:51:22.946Z,55
2017-08-13T15:52:24.608Z,65
2017-08-13T15:53:26.052Z,70
2017-08-13T15:54:28.430Z,70
2017-08-13T15:55:29.859Z,75
2017-08-13T15:56:31.316Z,85
2017-08-13T15:57:32.755Z,100
2017-08-13T15:58:34.194Z,115
2017-08-13T15:59:35.625Z,120
2017-08-13T16:00:37.093Z,120
2017-08-13T16:01:38.519Z,120
2017-08-13T16:02:40.169Z,115
2017-08-13T16:03:41.595Z,115
2017-08-13T16:04:43.039Z,120
2017-08-13T16:05:44.465Z,120
2017-08-13T16:06:46.018Z,120
2017-08-13T16:07:47.433Z,115
2017-08-13T16:08:49.163Z,110
2017-08-13T16:09:50.594Z,105
2017-08-13T16:10:52.019Z,100
2017-08-13T16:11:53.455Z,95
2017-08-13T16:12:54.893Z,90
2017-08-13T16:13:56.335Z,90
2017-08-13T16:14:57.771Z,90
2017-08-13T16:15:59.203Z,90
2017-08-13T16:17:00.632Z,90
2017-08-13T16:18:02.062Z,90
2017-08-13T16:19:03.493Z,95
2017-08-13T16:20:04.927Z,95
2017-08-13T16:21:06.360Z,95
2017-08-13T16:22:07.782Z,95
2017-08-13T16:23:09.208Z,90
2017-08-13T16:24:10.641Z,95
2017-08-13T16:25:12.075Z,95
2017-08-13T16:26:13.510Z,100
2017-08-13T16:27:14.940Z,100
2017-08-13T16:28:16.377Z,95
2017-08-13T16:29:17.804Z,95
2017-08-13T16:30:19.234Z,95
2017-08-13T16:31:20.662Z,100
2017-08-13T16:32:22.098Z,100
2017-08-13T16:33:23.528Z,100
2017-08-13T16:34:24.955Z,95
2017-08-13T16:35:26.382Z,95
2017-08-13T16:36:27.819Z,95
2017-08-13T16:37:29.246Z,85
2017-08-13T16:38:30.680Z,80
2017-08-13T16:39:32.117Z,80
2017-08-13T16:40:33.559Z,75
2017-08-13T16:41:34.989Z,70
2017-08-13T16:42:36.422Z,70
2017-08-13T16:43:37.851Z,65
2017-08-13T16:44:39.279Z,60
2017-08-13T16:45:40.709Z,55
2017-08-13T16:46:42.145Z,55
2017-08-13T16:47:43.582Z,50
2017-08-13T16:48:45.020Z,45
2017-08-13T16:49:46.443Z,45
2017-08-13T16:50:47.983Z,45
2017-08-13T16:51:49.419Z,45
2017-08-13T16:52:50.852Z,45
2017-08-13T16:53:52.282Z,45
2017-08-13T16:54:53.714Z,50
2017-08-13T16:55:55.151Z,50
2017-08-13T16:56:56.582Z,45
2017-08-13T16:57:58.020Z,45
2017-08-13T16:58:59.462Z,40
2017-08-13T17:00:00.894Z,40
2017-08-13T17:01:02.330Z,40
2017-08-13T17:02:03.797Z,40
2017-08-13T17:03:05.239Z,40
2017-08-13T17:04:06.674Z,40
2017-08-13T17:05:08.130Z,35
2017-08-13T17:06:09.586Z,35
2017-08-13T17:07:11.015Z,35
2017-08-13T17:08:12.458Z,35
2017-08-13T17:09:13.892Z,35
2017-08-13T17:10:15.328Z,35
2017-08-13T17:11:16.760Z,35
2017-08-13T17:12:18.231Z,35
2017-08-13T17:13:19.675Z,35
2017-08-13T17:14:21.103Z,30
2017-08-13T17:15:22.534Z,30
2017-08-13T17:16:23.980Z,30
2017-08-13T17:17:25.424Z,30
2017-08-13T17:18:26.855Z,30
2017-08-13T17:19:28.282Z,30
2017-08-13T17:20:29.732Z,30
2017-08-13T17:21:31.161Z,30
2017-08-13T17:22:32.589Z,30
2017-08-13T17:23:34.019Z,30
2017-08-13T17:24:35.447Z,30
2017-08-13T17:25:36.887Z,30
2017-08-13T17:26:38.322Z,30
2017-08-13T17:27:39.768Z,30
2017-08-13T17:28:41.197Z,30
2017-08-13T17:29:42.631Z,25
2017-08-13T17:30:44.054Z,25
2017-08-13T17:31:45.506Z,25
2017-08-13T17:32:46.939Z,25
2017-08-13T17:33:48.377Z,30
2017-08-13T17:34:49.809Z,30
2017-08-13T17:35:51.242Z,30
2017-08-13T17:36:52.661Z,30
2017-08-13T17:37:54.097Z,30
2017-08-13T17:38:55.536Z,30
2017-08-13T17:39:56.967Z,30
2017-08-13T17:40:58.409Z,30
2017-08-13T17:41:59.837Z,30
2017-08-13T17:43:01.274Z,20
2017-08-13T17:44:02.696Z,30
2017-08-13T17:45:04.130Z,30
2017-08-13T17:46:05.566Z,30
2017-08-13T17:47:06.990Z,30
2017-08-13T17:48:08.423Z,30
2017-08-13T17:49:09.854Z,30
2017-08-13T17:50:11.278Z,30
2017-08-13T17:51:12.714Z,30
2017-08-13T17:52:14.161Z,25
2017-08-13T17:53:15.588Z,25
2017-08-13T17:54:17.026Z,25
2017-08-13T17:55:18.461Z,25
2017-08-13T17:56:19.916Z,25
2017-08-13T17:57:21.350Z,25
2017-08-13T17:58:22.779Z,25
2017-08-13T17:59:24.741Z,25
2017-08-13T18:00:26.960Z,25
2017-08-13T18:01:29.238Z,25
2017-08-13T18:02:30.678Z,20
2017-08-13T18:03:32.113Z,20
2017-08-13T18:04:33.544Z,20
2017-08-13T18:05:35.804Z,20
2017-08-13T18:06:37.246Z,20
2017-08-13T18:07:38.683Z,20
2017-08-13T18:08:40.136Z,20
2017-08-13T18:09:41.568Z,20
2017-08-13T18:10:43.002Z,20
2017-08-13T18:11:44.433Z,20
2017-08-13T18:12:45.859Z,15
2017-08-13T18:13:47.309Z,15
2017-08-13T18:14:48.739Z,15
2017-08-13T18:15:50.905Z,15
2017-08-13T18:16:53.061Z,15
2017-08-13T18:17:54.503Z,15
2017-08-13T18:18:55.939Z,15
2017-08-13T18:19:57.370Z,10
2017-08-13T18:20:58.803Z,10
2017-08-13T18:22:00.282Z,10
2017-08-13T18:23:01.726Z,10
2017-08-13T18:24:03.158Z,10
2017-08-13T18:25:04.584Z,10
2017-08-13T18:26:06.022Z,10
2017-08-13T18:27:07.460Z,10
2017-08-13T18:28:08.897Z,5
2017-08-13T18:29:10.326Z,5
2017-08-13T18:30:11.759Z,5
2017-08-13T18:31:13.873Z,5
2017-08-13T18:32:15.546Z,5
2017-08-13T18:33:16.982Z,5
2017-08-13T18:34:18.414Z,5
2017-08-13T18:35:19.856Z,5
2017-08-13T18:36:21.289Z,5
2017-08-13T18:37:22.719Z,5
2017-08-13T18:38:24.150Z,5
2017-08-13T18:39:27.370Z,5
2017-08-13T18:40:29.049Z,0
2017-08-13T18:41:30.480Z,0
2017-08-13T18:42:31.929Z,0
2017-08-13T18:43:33.353Z,0
2017-08-13T18:44:34.789Z,0
2017-08-13T18:45:36.221Z,0
2017-08-13T18:46:38.374Z,0
2017-08-13T18:47:39.037Z,0
2017-08-13T18:48:41.377Z,0
2017-08-13T18:49:45.422Z,0
2017-08-13T18:50:46.878Z,0
2017-08-13T18:51:48.310Z,0
2017-08-13T18:52:50.436Z,0
2017-08-13T18:53:52.559Z,0
2017-08-13T18:54:54.000Z,0
2017-08-13T18:55:55.427Z,0
2017-08-13T18:56:57.456Z,0
2017-08-13T18:57:59.765Z,0
2017-08-13T18:59:01.192Z,0
2017-08-13T19:00:02.628Z,0
2017-08-13T19:01:04.060Z,0
2017-08-13T19:02:06.450Z,0
2017-08-13T19:03:07.880Z,0
2017-08-13T19:04:09.322Z,0
2017-08-13T19:05:10.745Z,0
2017-08-13T19:06:13.893Z,0
2017-08-13T19:07:15.325Z,0
2017-08-13T19:08:16.764Z,0
2017-08-13T19:09:18.888Z,0
2017-08-13T19:10:20.346Z,0
2017-08-13T19:11:21.777Z,0
2017-08-13T19:12:23.230Z,0
2017-08-13T19:13:24.664Z,0
2017-08-13T19:14:26.096Z,0
2017-08-13T19:15:27.532Z,0
2017-08-13T19:16:29.687Z,0
2017-08-13T19:17:31.122Z,0
2017-08-13T19:18:32.580Z,0
2017-08-13T19:19:34.008Z,0
2017-08-13T19:20:35.436Z,0
2017-08-13T19:21:37.481Z,0
2017-08-13T19:22:44.188Z,0
2017-08-13T19:23:45.632Z,0
2017-08-13T19:24:47.052Z,0
2017-08-13T19:25:48.475Z,0
2017-08-13T19:26:49.909Z,0
2017-08-13T19:27:51.335Z,0
2017-08-13T19:28:52.760Z,0
2017-08-13T19:29:55.193Z,0
2017-08-13T19:30:57.235Z,0
2017-08-13T19:31:59.588Z,0
2017-08-13T19:33:01.021Z,0
2017-08-13T19:34:03.398Z,0
2017-08-13T19:35:05.511Z,0
2017-08-13T19:36:07.583Z,0
2017-08-13T19:37:09.576Z,0
2017-08-13T19:38:11.936Z,0
2017-08-13T19:39:14.281Z,0
2017-08-13T19:40:15.717Z,0
2017-08-13T19:41:18.003Z,0
2017-08-13T19:42:20.142Z,0
2017-08-13T19:43:21.593Z,0
2017-08-13T19:44:23.937Z,0
2017-08-13T19:45:26.083Z,0
2017-08-13T19:46:28.111Z,0
2017-08-13T19:47:30.088Z,0
2017-08-13T19:48:32.505Z,0
2017-08-13T19:49:34.842Z,0
2017-08-13T19:50:36.280Z,0
2017-08-13T19:51:38.238Z,0
2017-08-13T19:52:40.652Z,0
2017-08-13T19:53:43.009Z,0
2017-08-13T19:54:45.374Z,0
2017-08-13T19:55:46.819Z,0
2017-08-13T19:56:48.980Z,0
2017-08-13T19:57:51.013Z,0
2017-08-13T19:58:53.288Z,0
2017-08-13T19:59:55.505Z,0
2017-08-13T20:00:57.568Z,0
2017-08-13T20:01:59.593Z,0
2017-08-13T20:03:01.562Z,0
2017-08-13T20:04:03.879Z,0
2017-08-13T20:05:06.047Z,0
2017-08-13T20:06:08.135Z,0
2017-08-13T20:07:10.139Z,0
2017-08-13T20:08:12.099Z,0
2017-08-13T20:09:14.405Z,0
2017-08-13T20:10:16.704Z,0
2017-08-13T20:11:18.905Z,0
2017-08-13T20:12:20.344Z,0
2017-08-13T20:13:22.336Z,0
2017-08-13T20:14:24.771Z,0
2017-08-13T20:15:26.752Z,0
2017-08-13T20:16:29.014Z,0
2017-08-13T20:17:31.253Z,0
2017-08-13T20:18:33.249Z,0
2017-08-13T20:19:35.688Z,0
2017-08-13T20:20:37.922Z,0
2017-08-13T20:21:39.356Z,0
2017-08-13T20:22:41.574Z,0
2017-08-13T20:23:43.771Z,0
2017-08-13T20:24:45.194Z,0
2017-08-13T20:25:47.558Z,0
2017-08-13T20:26:49.773Z,0
2017-08-13T20:27:51.933Z,0
2017-08-13T20:28:53.365Z,0
2017-08-13T20:29:55.354Z,0
2017-08-13T20:30:57.697Z,0
2017-08-13T20:31:59.968Z,0
2017-08-13T20:33:01.996Z,0
2017-08-13T20:34:04.347Z,0
2017-08-13T20:35:06.445Z,0
2017-08-13T20:36:08.510Z,0
2017-08-13T20:37:10.801Z,0
2017-08-13T20:38:12.855Z,0
2017-08-13T20:39:14.827Z,0
2017-08-13T20:40:16.285Z,0
2017-08-13T20:41:17.733Z,0
2017-08-13T20:42:19.795Z,0
2017-08-13T20:43:21.997Z,0
2017-08-13T20:44:24.003Z,0
2017-08-13T20:45:26.287Z,0
2017-08-13T20:46:27.715Z,0
2017-08-13T20:47:29.895Z,0
2017-08-13T20:48:31.908Z,0
2017-08-13T20:49:33.879Z,0
2017-08-13T20:50:35.905Z,0
2017-08-13T20:51:38.132Z,0
2017-08-13T20:52:40.194Z,0
2017-08-13T20:53:42.154Z,0
2017-08-13T20:54:42.982Z,0
2017-08-13T20:55:45.343Z,0
2017-08-13T20:56:46.773Z,0
2017-08-13T20:57:48.210Z,0
2017-08-13T20:58:49.639Z,0
2017-08-13T20:59:51.057Z,0
2017-08-13T21:00:52.476Z,0
2017-08-13T21:01:53.909Z,0
2017-08-13T21:02:55.333Z,0
2017-08-13T21:03:56.760Z,0
2017-08-13T21:04:58.190Z,0
2017-08-13T21:05:59.623Z,0
2017-08-13T21:07:01.045Z,0
2017-08-13T21:08:02.479Z,0
2017-08-13T21:09:03.905Z,0
2017-08-13T21:10:05.332Z,0
2017-08-13T21:11:06.745Z,0
2017-08-13T21:12:08.163Z,0
2017-08-13T21:13:09.587Z,0
2017-08-13T21:14:11.014Z,0
2017-08-13T21:15:12.434Z,0
2017-08-13T21:16:13.863Z,0
2017-08-13T21:17:15.290Z,0
2017-08-13T21:18:16.719Z,0
2017-08-13T21:19:18.158Z,0
2017-08-13T21:20:19.576Z,0
2017-08-13T21:21:21.002Z,0
2017-08-13T21:22:22.426Z,0
2017-08-13T21:23:23.852Z,0
2017-08-13T21:24:25.287Z,0
2017-08-13T21:25:26.721Z,0
2017-08-13T21:26:28.158Z,0
2017-08-13T21:27:29.607Z,0
2017-08-13T21:28:31.043Z,0
2017-08-13T21:29:32.499Z,0
2017-08-13T21:30:33.944Z,0
2017-08-13T21:31:35.365Z,0
2017-08-13T21:32:36.805Z,0
2017-08-13T21:33:38.227Z,0
2017-08-13T21:34:39.659Z,0
2017-08-13T21:35:41.098Z,0
2017-08-13T21:36:42.528Z,0
2017-08-13T21:37:43.959Z,0
2017-08-13T21:38:45.390Z,0
2017-08-13T21:39:46.808Z,0
2017-08-13T21:40:48.239Z,0
2017-08-13T21:41:49.662Z,0
2017-08-13T21:42:51.090Z,0
2017-08-13T21:43:52.505Z,0
2017-08-13T21:44:54.914Z,0
2017-08-13T21:45:56.334Z,0
2017-08-13T21:46:57.764Z,0
2017-08-13T21:47:59.194Z,0
2017-08-13T21:49:00.611Z,0
2017-08-13T21:50:02.031Z,0
2017-08-13T21:51:03.460Z,0
2017-08-13T21:52:04.891Z,0
2017-08-13T21:53:06.318Z,0
2017-08-13T21:54:07.740Z,0
2017-08-13T21:55:09.163Z,0
2017-08-13T21:56:10.595Z,0
2017-08-13T21:57:12.017Z,0
2017-08-13T21:58:13.444Z,0
2017-08-13T21:59:14.880Z,0
2017-08-13T22:00:16.302Z,0
2017-08-13T22:01:17.750Z,0
2017-08-13T22:02:19.175Z,0
2017-08-13T22:03:20.599Z,0
2017-08-13T22:04:22.021Z,0
2017-08-13T22:05:23.448Z,0
2017-08-13T22:06:24.870Z,0
2017-08-13T22:07:26.288Z,0
2017-08-13T22:08:27.706Z,0
2017-08-13T22:09:29.129Z,0
2017-08-13T22:10:30.550Z,0
2017-08-13T22:11:31.974Z,0
2017-08-13T22:12:33.402Z,0
2017-08-13T22:13:34.845Z,0
2017-08-13T22:14:36.268Z,0
2017-08-13T22:15:37.697Z,0
2017-08-13T22:16:39.125Z,0
2017-08-13T22:17:40.541Z,0
2017-08-13T22:18:41.968Z,0
2017-08-13T22:19:43.400Z,0
2017-08-13T22:20:44.819Z,0
2017-08-13T22:21:46.244Z,0
2017-08-13T22:22:47.671Z,0
2017-08-13T22:23:49.113Z,0
2017-08-13T22:24:50.533Z,0
2017-08-13T22:25:51.960Z,0
2017-08-13T22:26:53.391Z,0
2017-08-13T22:27:54.808Z,0
2017-08-13T22:28:56.257Z,0
2017-08-13T22:29:57.679Z,0
2017-08-13T22:30:59.109Z,0
2017-08-13T22:32:00.551Z,0
2017-08-13T22:33:02.042Z,0
2017-08-13T22:34:03.452Z,0
2017-08-13T22:35:04.881Z,0
2017-08-13T22:36:06.308Z,0
2017-08-13T22:37:07.804Z,0
2017-08-13T22:38:09.245Z,0
2017-08-13T22:39:10.657Z,0
2017-08-13T22:40:12.086Z,0
2017-08-13T22:41:13.518Z,0
2017-08-13T22:42:14.939Z,0
2017-08-13T22:43:16.370Z,0
2017-08-13T22:44:17.806Z,0
2017-08-13T22:45:19.233Z,0
2017-08-13T22:46:20.663Z,0
2017-08-13T22:47:22.091Z,0
2017-08-13T22:48:23.523Z,0
2017-08-13T22:49:24.948Z,0
2017-08-13T22:50:26.365Z,0
2017-08-13T22:51:27.787Z,0
2017-08-13T22:52:29.217Z,0
2017-08-13T22:53:30.653Z,0
2017-08-13T22:54:32.076Z,0
2017-08-13T22:55:33.501Z,0
2017-08-13T22:56:34.921Z,0
2017-08-13T22:57:36.345Z,0
2017-08-13T22:58:37.785Z,0
2017-08-13T22:59:39.206Z,0
2017-08-13T23:00:40.631Z,0
2017-08-13T23:01:42.060Z,0
2017-08-13T23:02:43.488Z,0
2017-08-13T23:03:44.908Z,0
2017-08-13T23:04:46.346Z,0
2017-08-13T23:05:47.767Z,0
2017-08-13T23:06:49.189Z,0
2017-08-13T23:07:50.608Z,0
2017-08-13T23:08:52.032Z,0
2017-08-13T23:09:53.451Z,0
2017-08-13T23:10:54.879Z,0
2017-08-13T23:11:56.304Z,0
2017-08-13T23:12:57.734Z,0
2017-08-13T23:13:59.158Z,0
2017-08-13T23:15:00.584Z,0
2017-08-13T23:16:02.003Z,0
2017-08-13T23:17:03.429Z,0
2017-08-13T23:18:04.857Z,0
2017-08-13T23:19:06.287Z,0
2017-08-13T23:20:07.717Z,0
2017-08-13T23:21:09.134Z,0
2017-08-13T23:22:10.558Z,0
2017-08-13T23:23:11.982Z,0
2017-08-13T23:24:13.406Z,0
2017-08-13T23:25:14.837Z,0
2017-08-13T23:26:16.255Z,0
2017-08-13T23:27:17.684Z,0
2017-08-13T23:28:19.109Z,0
2017-08-13T23:29:20.541Z,0
2017-08-13T23:30:21.945Z,0
2017-08-13T23:31:23.372Z,0
2017-08-13T23:32:24.809Z,0
2017-08-13T23:33:26.271Z,0
2017-08-13T23:34:27.699Z,0
2017-08-13T23:35:29.127Z,0
2017-08-13T23:36:30.556Z,0
2017-08-13T23:37:31.977Z,0
2017-08-13T23:38:33.393Z,0
2017-08-13T23:39:34.831Z,0
2017-08-13T23:40:36.265Z,0
2017-08-13T23:41:37.705Z,0
2017-08-13T23:42:39.137Z,0
2017-08-13T23:43:40.566Z,0
2017-08-13T23:44:41.988Z,0
2017-08-13T23:45:43.407Z,0
2017-08-13T23:46:44.839Z,0
2017-08-13T23:47:46.264Z,0
2017-08-13T23:48:47.687Z,0
2017-08-13T23:49:49.117Z,0
2017-08-13T23:50:50.540Z,0
2017-08-13T23:51:51.958Z,0
2017-08-13T23:52:53.389Z,0
2017-08-13T23:53:54.811Z,0
2017-08-13T23:54:56.232Z,0
2017-08-13T23:55:57.654Z,0
2017-08-13T23:56:59.077Z,0
2017-08-13T23:58:00.502Z,0
2017-08-13T23:59:01.917Z,0
